Pagrindinis puslapis
METAR-TAF:

METAR-TAF

Oro uostai :

Haifa, Izraelis

platuma: 32-48N, ilguma: 035-02E, Aukštis: 8 m

Dabartinis oras

Ataskaita buvo paskelbta 4 valandos ir 4 minutes, ne 15:50 UTC
Vėjas 12 kt iš Šiaurės
Temperatūra 24°C
Drėgmė 65%
Slėgis 1018 hPa
Matomumas 10 km arba daugiau
Mažai debesys ne aukštis 3100 ft

METAR: LLHA 221550Z 35012KT 9999 FEW031 24/17 Q1018

Laikas: 22:54 (19:54 UTC)

Prognozė

Ataskaita buvo paskelbta 2 valandos ir 47 minutes, ne 17:07 UTC
Prognozė galioja nuo 22 metu 18 UTC su 23 metu 18 UTC
Vėjas 8 kt iš Šiaurės
Matomumas 10 km arba daugiau
Mažai debesys ne aukštis 3000 ft
Tikimybė 40% :
Laikinai
nuo 22 metu 23 UTC su 23 metu 06 UTC
Vėjas 4 kt nuo kintamojo kryptimis
Išsisklaidę debesys ne aukštis 3000 ft
Tapsmas
nuo 23 metu 07 UTC su 23 metu 09 UTC
Vėjas 14 kt iš Šiaurės/Šiaurės Vakarų
Mažai debesys ne aukštis 4000 ft

TAF: LLHA 221707Z 2218/2318 36008KT 9999 FEW030 PROB40 TEMPO 2223/2306 VRB04KT SCT030 BECMG 2307/2309 34014KT FEW040 TX26/2311Z TN19/2303Z

Orai ataskaitas ir orų prognozės (METAR, TAF).

turimą stotys yra geltonos ir raudonos taškus žemėlapyje.

Perkelti pele per norėdami pamatyti stoties vardą.

Tada spustelėkite, norėdami matyti oro stebėjimo ir prognozės.

Norėdami pakeisti žemėlapį: spustelėkite ant žalios mygtukų su juodo kryžiaus žemyn,; žalią mygtuką su brūkšneliu, jei norite nutolinti; arba žalių rodyklių gretimoms žemėlapius.


METAR-TAF: